Time;durP1;ratioP1;P1;durP2;ratioP2;P2;SDS_P1;SDS_P2;PMS_P1;PMS_P2;Temp;Humidity;BMP_temperature;BMP_pressure;BME280_temperature;BME280_humidity;BME280_pressure;Samples;Min_cycle;Max_cycle;Signal;HPM_P1;HPM_P2
2023/09/27 00:00:39;;;;;;;;;;;;;;;28.33;41.87;94703.97;5046128;28;9265;-62
2023/09/27 00:03:34;;;;;;;;;;;;;;;28.34;41.81;94713.75;5031199;28;7338;-62
2023/09/27 00:06:00;;;;;;;;;;;;;;;28.31;41.87;94712.81;4957073;28;7071;-62
2023/09/27 00:08:31;;;;;;;;;;;;;;;28.32;42.28;94708.00;4948740;28;9031;-62
2023/09/27 00:11:02;;;;;;;;;;;;;;;28.32;42.31;94705.25;4952389;28;7221;-62
2023/09/27 00:13:29;;;;;;;;;;;;;;;28.27;41.85;94709.56;4963373;28;7010;-62
2023/09/27 00:15:55;;;;;;;;;;;;;;;28.30;42.44;94713.31;4953323;28;7254;-62
2023/09/27 00:18:30;;;;;;;;;;;;;;;28.29;42.66;94707.06;4964920;28;7136;-62
2023/09/27 00:20:58;;;;;;;;;;;;;;;28.26;41.80;94694.25;4954220;28;7066;-62
2023/09/27 00:23:35;;;;;;;;;;;;;;;28.28;42.23;94693.72;4962939;28;7194;-62
2023/09/27 00:26:10;;;;;;;;;;;;;;;28.27;41.89;94692.97;4954827;28;8958;-62
2023/09/27 00:29:07;;;;;;;;;;;;;;;28.27;42.38;94690.22;4954661;28;7246;-62
2023/09/27 00:31:35;;;;;;;;;;;;;;;28.25;42.10;94684.44;4952980;28;8108;-62
2023/09/27 00:34:13;;;;;;;;;;;;;;;28.25;41.94;94687.22;4951860;28;8770;-63
2023/09/27 00:37:08;;;;;;;;;;;;;;;28.27;42.03;94686.72;4959241;28;9432;-62
2023/09/27 00:39:46;;;;;;;;;;;;;;;28.24;41.70;94682.22;4915134;29;8898;-62
2023/09/27 00:42:18;;;;;;;;;;;;;;;28.25;42.55;94683.72;4909296;28;9896;-63
2023/09/27 00:45:25;;;;;;;;;;;;;;;28.25;42.13;94692.03;4956838;28;8765;-62
2023/09/27 00:48:02;;;;;;;;;;;;;;;28.22;42.05;94682.75;4944096;28;9112;-62
2023/09/27 00:50:53;;;;;;;;;;;;;;;28.22;42.51;94679.22;4951998;28;7207;-62
2023/09/27 00:53:42;;;;;;;;;;;;;;;28.22;42.04;94682.00;4980405;28;7432;-62
2023/09/27 00:56:26;;;;;;;;;;;;;;;28.23;41.95;94687.00;4975312;28;7292;-62
2023/09/27 00:58:55;;;;;;;;;;;;;;;28.23;41.81;94675.19;4973226;28;9222;-62
2023/09/27 01:01:34;;;;;;;;;;;;;;;28.23;42.09;94677.97;4969246;28;8392;-62
2023/09/27 01:04:02;;;;;;;;;;;;;;;28.22;42.13;94679.97;4959142;28;8771;-56
2023/09/27 01:06:46;;;;;;;;;;;;;;;28.22;41.60;94682.00;4988602;28;7272;-56
2023/09/27 01:09:20;;;;;;;;;;;;;;;28.22;42.01;94679.22;4955407;28;8462;-56
2023/09/27 01:11:47;;;;;;;;;;;;;;;28.21;41.90;94674.94;4971927;28;7086;-56
2023/09/27 01:14:16;;;;;;;;;;;;;;;28.20;41.82;94673.47;4954019;28;7381;-56
2023/09/27 01:16:42;;;;;;;;;;;;;;;28.20;42.16;94677.00;5031304;28;8747;-56
2023/09/27 01:19:10;;;;;;;;;;;;;;;28.17;42.29;94675.25;5023553;28;7868;-56
2023/09/27 01:21:36;;;;;;;;;;;;;;;28.19;42.10;94663.66;5007393;28;9158;-56
2023/09/27 01:24:04;;;;;;;;;;;;;;;28.17;42.05;94678.00;5020329;28;6960;-56
2023/09/27 01:26:36;;;;;;;;;;;;;;;28.17;42.44;94678.00;5021926;28;9313;-56
2023/09/27 01:29:08;;;;;;;;;;;;;;;28.16;42.36;94684.06;5007328;28;7005;-56
2023/09/27 01:31:36;;;;;;;;;;;;;;;28.16;42.29;94692.38;5053916;28;7506;-56
2023/09/27 01:34:12;;;;;;;;;;;;;;;28.14;41.67;94692.16;5050086;28;7393;-56
2023/09/27 01:37:07;;;;;;;;;;;;;;;28.09;42.59;94687.41;5063488;28;9095;-56
2023/09/27 01:39:55;;;;;;;;;;;;;;;28.07;42.45;94687.19;4969642;28;7327;-56
2023/09/27 01:42:29;;;;;;;;;;;;;;;28.06;41.98;94686.44;4989266;28;8882;-55
2023/09/27 01:44:57;;;;;;;;;;;;;;;28.03;42.15;94681.22;4972512;28;7501;-56
2023/09/27 01:47:37;;;;;;;;;;;;;;;28.00;42.40;94687.78;4975750;28;9031;-56
2023/09/27 01:50:35;;;;;;;;;;;;;;;28.01;42.21;94692.03;4979426;28;7360;-56
2023/09/27 01:53:12;;;;;;;;;;;;;;;28.01;42.37;94697.56;4920218;29;8164;-56
2023/09/27 01:55:49;;;;;;;;;;;;;;;27.98;42.11;94695.84;4929610;29;7248;-56
2023/09/27 01:58:28;;;;;;;;;;;;;;;27.99;42.18;94694.59;4927668;29;7189;-56
2023/09/27 02:01:27;;;;;;;;;;;;;;;27.97;42.32;94692.31;4908029;29;7198;-56
2023/09/27 02:04:42;;;;;;;;;;;;;;;27.96;42.33;94690.81;4907784;29;7377;-56
2023/09/27 02:07:08;;;;;;;;;;;;;;;27.94;41.98;94685.06;4860836;29;7284;-56
2023/09/27 02:09:39;;;;;;;;;;;;;;;27.93;42.42;94691.84;4874263;29;8587;-56
2023/09/27 02:12:07;;;;;;;;;;;;;;;27.92;42.38;94695.13;4870894;29;8365;-56
2023/09/27 02:14:32;;;;;;;;;;;;;;;27.89;42.50;94696.91;4855979;29;6992;-60
2023/09/27 02:16:58;;;;;;;;;;;;;;;27.91;42.62;94697.13;4889056;29;6954;-60
2023/09/27 02:19:34;;;;;;;;;;;;;;;27.90;42.13;94703.94;4899594;29;7001;-60
2023/09/27 02:22:00;;;;;;;;;;;;;;;27.89;42.35;94707.22;4900611;29;9205;-60
2023/09/27 02:24:27;;;;;;;;;;;;;;;27.87;42.62;94702.22;4901880;29;8811;-60
2023/09/27 02:27:05;;;;;;;;;;;;;;;27.91;42.54;94696.38;4895620;29;10066;-60
2023/09/27 02:29:33;;;;;;;;;;;;;;;27.89;42.31;94701.69;4936655;28;7332;-60
2023/09/27 02:32:09;;;;;;;;;;;;;;;27.87;42.63;94704.97;4955735;28;7214;-60
2023/09/27 02:34:36;;;;;;;;;;;;;;;27.91;41.94;94699.16;4947720;28;8763;-60
2023/09/27 02:37:05;;;;;;;;;;;;;;;27.89;42.38;94691.38;4976154;28;8893;-60
2023/09/27 02:39:31;;;;;;;;;;;;;;;27.89;42.50;94696.16;4968513;28;7217;-60
2023/09/27 02:41:58;;;;;;;;;;;;;;;27.89;41.99;94696.91;4978363;28;7331;-60
2023/09/27 02:44:29;;;;;;;;;;;;;;;27.89;42.49;94696.91;5030844;28;8790;-60
2023/09/27 02:46:59;;;;;;;;;;;;;;;27.87;43.08;94693.16;5052484;28;7241;-60
2023/09/27 02:49:26;;;;;;;;;;;;;;;27.89;42.32;94701.69;5045436;28;7264;-60
2023/09/27 02:51:53;;;;;;;;;;;;;;;27.88;42.67;94702.97;5044997;28;8797;-60
2023/09/27 02:54:30;;;;;;;;;;;;;;;27.84;42.41;94705.28;5050821;28;7279;-60
2023/09/27 02:57:03;;;;;;;;;;;;;;;27.86;42.49;94699.97;5055789;28;7201;-60
2023/09/27 02:59:33;;;;;;;;;;;;;;;27.86;42.69;94711.75;5036949;28;7143;-60
2023/09/27 03:02:08;;;;;;;;;;;;;;;27.84;42.73;94714.28;5058008;28;6968;-60
2023/09/27 03:05:09;;;;;;;;;;;;;;;27.85;42.09;94713.03;5039953;28;8452;-60
2023/09/27 03:07:48;;;;;;;;;;;;;;;27.84;42.64;94708.03;5042430;28;7256;-60
2023/09/27 03:10:15;;;;;;;;;;;;;;;27.82;42.11;94711.31;5042833;28;7190;-60
2023/09/27 03:12:51;;;;;;;;;;;;;;;27.81;42.69;94706.28;5050583;28;7036;-60
2023/09/27 03:15:36;;;;;;;;;;;;;;;27.79;42.55;94717.13;5052450;28;6993;-60
2023/09/27 03:18:07;;;;;;;;;;;;;;;27.78;42.47;94712.84;5069149;28;7466;-60
2023/09/27 03:21:12;;;;;;;;;;;;;;;27.79;42.34;94719.88;5071834;28;7118;-60
2023/09/27 03:23:53;;;;;;;;;;;;;;;27.76;42.72;94716.16;5040239;28;7265;-54
2023/09/27 03:26:22;;;;;;;;;;;;;;;27.74;42.21;94712.41;5043560;28;7257;-53
2023/09/27 03:29:18;;;;;;;;;;;;;;;27.77;42.29;94725.19;5071027;28;7894;-54
2023/09/27 03:31:44;;;;;;;;;;;;;;;27.76;42.76;94732.72;5010680;28;7158;-53
2023/09/27 03:34:21;;;;;;;;;;;;;;;27.75;42.61;94736.00;4981430;28;9038;-54
2023/09/27 03:36:55;;;;;;;;;;;;;;;27.76;42.47;94732.72;5002353;28;9008;-54
2023/09/27 03:39:22;;;;;;;;;;;;;;;27.75;42.65;94734.00;5008520;28;7041;-54
2023/09/27 03:41:54;;;;;;;;;;;;;;;27.75;42.57;94730.50;5012598;28;7105;-55
2023/09/27 03:44:23;;;;;;;;;;;;;;;27.75;42.59;94730.50;5004598;28;7293;-54
2023/09/27 03:46:49;;;;;;;;;;;;;;;27.74;42.36;94729.72;5004713;28;9127;-55
2023/09/27 03:49:15;;;;;;;;;;;;;;;27.75;42.41;94733.25;4993701;28;6976;-54
2023/09/27 03:51:41;;;;;;;;;;;;;;;27.74;42.70;94735.25;4996857;28;9452;-54
2023/09/27 03:54:10;;;;;;;;;;;;;;;27.74;42.54;94726.22;4983736;28;8594;-54
2023/09/27 03:56:36;;;;;;;;;;;;;;;27.74;42.96;94735.25;4994510;28;7199;-54
2023/09/27 03:59:04;;;;;;;;;;;;;;;27.73;42.56;94736.50;4992898;28;7229;-53
2023/09/27 04:01:46;;;;;;;;;;;;;;;27.73;41.95;94742.03;5003054;28;7187;-54
2023/09/27 04:04:13;;;;;;;;;;;;;;;27.70;42.44;94731.28;5012562;28;7082;-54
2023/09/27 04:06:40;;;;;;;;;;;;;;;27.70;42.28;94736.81;4997104;28;7272;-54
2023/09/27 04:09:08;;;;;;;;;;;;;;;27.71;42.66;94741.81;5036776;28;7223;-53
2023/09/27 04:11:34;;;;;;;;;;;;;;;27.72;42.48;94748.09;5059794;28;7248;-54
2023/09/27 04:14:00;;;;;;;;;;;;;;;27.71;42.46;94746.59;5059919;28;7237;-54
2023/09/27 04:16:30;;;;;;;;;;;;;;;27.70;42.13;94750.63;5068568;28;7259;-54
2023/09/27 04:19:01;;;;;;;;;;;;;;;27.68;42.30;94742.84;5077355;28;9240;-53
2023/09/27 04:21:28;;;;;;;;;;;;;;;27.71;42.23;94743.84;5040777;28;7812;-53
2023/09/27 04:24:08;;;;;;;;;;;;;;;27.69;42.67;94738.81;5060681;28;9212;-53
2023/09/27 04:26:34;;;;;;;;;;;;;;;27.68;42.54;94745.63;5047677;28;7326;-52
2023/09/27 04:29:00;;;;;;;;;;;;;;;27.66;42.35;94747.41;5047292;28;7344;-54
2023/09/27 04:31:26;;;;;;;;;;;;;;;27.68;42.36;94747.63;5051669;28;7182;-52
2023/09/27 04:34:25;;;;;;;;;;;;;;;27.67;42.51;94740.59;5057596;28;9233;-60
2023/09/27 04:37:08;;;;;;;;;;;;;;;27.63;42.68;94738.88;5022665;28;7506;-60
2023/09/27 04:39:53;;;;;;;;;;;;;;;27.66;42.72;94739.09;5015624;28;6998;-61
2023/09/27 04:42:35;;;;;;;;;;;;;;;27.64;42.76;94736.88;5009878;28;7270;-60
2023/09/27 04:45:06;;;;;;;;;;;;;;;27.67;42.80;94740.59;5012377;28;7083;-61
2023/09/27 04:47:45;;;;;;;;;;;;;;;27.65;42.80;94738.34;5011589;28;7602;-60
2023/09/27 04:50:39;;;;;;;;;;;;;;;27.69;42.86;94743.63;5003088;28;7547;-60
2023/09/27 04:53:07;;;;;;;;;;;;;;;27.68;42.98;94753.16;5024332;28;7481;-60
2023/09/27 04:55:43;;;;;;;;;;;;;;;27.64;42.99;94748.66;5028054;28;7344;-60
2023/09/27 04:58:12;;;;;;;;;;;;;;;27.69;42.36;94754.66;5031584;28;8737;-60
2023/09/27 05:00:50;;;;;;;;;;;;;;;27.69;42.76;94754.66;5017894;28;7382;-61
2023/09/27 05:03:18;;;;;;;;;;;;;;;27.66;42.68;94756.44;5035317;28;7127;-60
2023/09/27 05:05:57;;;;;;;;;;;;;;;27.66;42.26;94759.22;5007824;28;9610;-60
2023/09/27 05:08:31;;;;;;;;;;;;;;;27.66;42.99;94755.69;5035285;28;7433;-60
2023/09/27 05:11:00;;;;;;;;;;;;;;;27.66;43.26;94756.44;5010945;28;6868;-61
2023/09/27 05:13:35;;;;;;;;;;;;;;;27.62;42.95;94753.94;5039361;28;6997;-61
2023/09/27 05:16:03;;;;;;;;;;;;;;;27.64;42.78;94758.97;5048124;28;9091;-61
2023/09/27 05:18:29;;;;;;;;;;;;;;;27.60;42.11;94747.44;5063075;28;8726;-61
2023/09/27 05:21:04;;;;;;;;;;;;;;;27.61;42.13;94741.41;5068795;28;7324;-60
2023/09/27 05:23:40;;;;;;;;;;;;;;;27.61;42.12;94746.94;5069565;28;9273;-61
2023/09/27 05:26:17;;;;;;;;;;;;;;;27.60;41.88;94744.66;5034022;28;7076;-60
2023/09/27 05:29:04;;;;;;;;;;;;;;;27.60;41.86;94752.97;5050842;28;7007;-60
2023/09/27 05:31:29;;;;;;;;;;;;;;;27.59;41.60;94752.22;5046354;28;7111;-60
2023/09/27 05:34:08;;;;;;;;;;;;;;;27.59;41.47;94746.72;5034119;28;7216;-60
2023/09/27 05:36:42;;;;;;;;;;;;;;;27.56;40.82;94744.97;5058795;28;7412;-61
2023/09/27 05:39:13;;;;;;;;;;;;;;;27.61;41.15;94743.41;5034174;28;7337;-61
2023/09/27 05:41:40;;;;;;;;;;;;;;;27.62;41.12;94742.16;5046241;28;7360;-60
2023/09/27 05:44:07;;;;;;;;;;;;;;;27.64;41.00;94747.94;5047080;28;7315;-60
2023/09/27 05:46:41;;;;;;;;;;;;;;;27.63;41.14;94741.63;5073594;28;7270;-60
2023/09/27 05:49:20;;;;;;;;;;;;;;;27.66;41.21;94736.34;5070101;28;9057;-60
2023/09/27 05:51:52;;;;;;;;;;;;;;;27.67;40.92;94740.59;5046116;28;9386;-60
2023/09/27 05:54:45;;;;;;;;;;;;;;;27.68;41.06;94737.34;5046274;28;9156;-60
2023/09/27 05:57:25;;;;;;;;;;;;;;;27.67;40.19;94741.34;5073360;28;7001;-60
2023/09/27 06:00:03;;;;;;;;;;;;;;;27.67;39.76;94738.59;5078703;28;7397;-61
2023/09/27 06:02:37;;;;;;;;;;;;;;;27.66;40.28;94741.88;5052837;28;7237;-61
2023/09/27 06:05:18;;;;;;;;;;;;;;;27.64;39.51;94737.59;5063122;28;8992;-61
2023/09/27 06:07:56;;;;;;;;;;;;;;;27.63;39.84;94738.88;5064767;28;7482;-61
2023/09/27 06:10:25;;;;;;;;;;;;;;;27.63;39.44;94738.88;5078591;28;7034;-60
2023/09/27 06:12:58;;;;;;;;;;;;;;;27.65;39.39;94746.66;5040992;28;7564;-61
2023/09/27 06:15:37;;;;;;;;;;;;;;;27.63;39.74;94747.16;5050134;28;7518;-61
2023/09/27 06:18:04;;;;;;;;;;;;;;;27.61;39.44;94749.69;5077764;28;7233;-61
2023/09/27 06:20:45;;;;;;;;;;;;;;;27.62;39.84;94750.47;5044557;28;6988;-60
2023/09/27 06:23:14;;;;;;;;;;;;;;;27.61;39.85;94746.94;5073852;28;7267;-61
2023/09/27 06:25:43;;;;;;;;;;;;;;;27.62;40.01;94748.41;5057427;28;7092;-61
2023/09/27 06:28:20;;;;;;;;;;;;;;;27.59;39.72;94741.19;5044726;28;7328;-61
2023/09/27 06:31:21;;;;;;;;;;;;;;;27.61;40.00;94748.94;5059834;28;7311;-60
2023/09/27 06:33:47;;;;;;;;;;;;;;;27.60;39.81;94759.25;4990410;28;7253;-61
2023/09/27 06:36:51;;;;;;;;;;;;;;;27.62;40.09;94767.03;5014930;28;7131;-61
2023/09/27 06:39:23;;;;;;;;;;;;;;;27.62;40.29;94765.00;4986076;28;7090;-61
2023/09/27 06:42:00;;;;;;;;;;;;;;;27.63;40.32;94763.00;4994575;28;7218;-61
2023/09/27 06:44:50;;;;;;;;;;;;;;;27.62;40.04;94761.50;4979701;28;7281;-61
2023/09/27 06:47:47;;;;;;;;;;;;;;;27.60;40.31;94775.81;4969957;28;9109;-61
2023/09/27 06:50:19;;;;;;;;;;;;;;;27.59;40.32;94768.81;4914347;29;8763;-61
2023/09/27 06:52:47;;;;;;;;;;;;;;;27.60;39.99;94770.28;4955733;28;7292;-62
2023/09/27 06:55:22;;;;;;;;;;;;;;;27.59;40.49;94757.75;4951703;28;7053;-64
2023/09/27 06:57:51;;;;;;;;;;;;;;;27.61;40.61;94763.50;4938749;28;8886;-64
2023/09/27 07:00:23;;;;;;;;;;;;;;;27.60;40.49;94753.72;4941367;28;7028;-64
2023/09/27 07:02:56;;;;;;;;;;;;;;;27.61;40.73;94760.00;4951716;28;6973;-64
2023/09/27 07:05:26;;;;;;;;;;;;;;;27.58;40.28;94756.25;4951990;28;7241;-64
2023/09/27 07:07:54;;;;;;;;;;;;;;;27.59;41.04;94755.00;4930317;28;7219;-64
2023/09/27 07:10:31;;;;;;;;;;;;;;;27.61;40.64;94754.47;4969479;28;7466;-64
2023/09/27 07:13:09;;;;;;;;;;;;;;;27.61;40.45;94754.47;4957355;28;8873;-63
2023/09/27 07:15:48;;;;;;;;;;;;;;;27.60;40.39;94753.72;4950864;28;8760;-64
2023/09/27 07:18:43;;;;;;;;;;;;;;;27.60;40.65;94764.78;4964744;28;7374;-64
2023/09/27 07:21:11;;;;;;;;;;;;;;;27.59;40.59;94768.81;4933273;29;8900;-64
2023/09/27 07:23:37;;;;;;;;;;;;;;;27.58;40.93;94766.53;4928430;28;7141;-66
2023/09/27 07:26:05;;;;;;;;;;;;;;;27.61;40.89;94769.03;4962898;28;8757;-64
2023/09/27 07:28:32;;;;;;;;;;;;;;;27.61;41.33;94758.00;5006527;28;7186;-63
2023/09/27 07:30:59;;;;;;;;;;;;;;;27.60;41.02;94756.47;5013948;28;7651;-64
2023/09/27 07:33:29;;;;;;;;;;;;;;;27.61;40.53;94769.03;5023068;28;6970;-64
2023/09/27 07:36:29;;;;;;;;;;;;;;;27.61;40.49;94771.81;5019888;28;7218;-64
2023/09/27 07:39:15;;;;;;;;;;;;;;;27.58;40.80;94761.00;4974241;28;8837;-64
2023/09/27 07:42:00;;;;;;;;;;;;;;;27.53;41.04;94754.28;4973308;28;7512;-64
2023/09/27 07:44:46;;;;;;;;;;;;;;;27.53;41.40;94748.03;4953777;28;9125;-64
2023/09/27 07:47:24;;;;;;;;;;;;;;;27.53;41.17;94754.28;4953447;28;7260;-63
2023/09/27 07:49:52;;;;;;;;;;;;;;;27.50;41.09;94749.78;4955424;28;7596;-64
2023/09/27 07:52:18;;;;;;;;;;;;;;;27.51;41.31;94761.59;4963146;28;7300;-64
2023/09/27 07:54:45;;;;;;;;;;;;;;;27.50;41.18;94749.03;4969631;28;8461;-64
2023/09/27 07:57:30;;;;;;;;;;;;;;;27.48;41.31;94749.56;4977982;28;7294;-63
2023/09/27 08:00:12;;;;;;;;;;;;;;;27.51;40.83;94745.03;4994661;28;6985;-63
2023/09/27 08:02:38;;;;;;;;;;;;;;;27.49;41.53;94747.56;4980160;28;7008;-63
2023/09/27 08:05:11;;;;;;;;;;;;;;;27.49;41.40;94742.03;4969377;28;9096;-63
2023/09/27 08:07:40;;;;;;;;;;;;;;;27.49;41.24;94742.75;4979041;28;7303;-63
2023/09/27 08:10:08;;;;;;;;;;;;;;;27.49;41.55;94742.75;4981545;28;7274;-63
2023/09/27 08:12:34;;;;;;;;;;;;;;;27.50;41.64;94744.25;4969202;28;7039;-63
2023/09/27 08:15:03;;;;;;;;;;;;;;;27.49;41.53;94742.75;5014352;28;9786;-62
2023/09/27 08:17:34;;;;;;;;;;;;;;;27.52;41.38;94741.75;5076168;28;9440;-62
2023/09/27 08:20:12;;;;;;;;;;;;;;;27.46;41.75;94732.75;5054654;28;9106;-63
2023/09/27 08:22:51;;;;;;;;;;;;;;;27.48;41.73;94735.75;5047689;28;9971;-63
2023/09/27 08:25:51;;;;;;;;;;;;;;;27.74;41.72;94738.03;5055364;28;8516;-62
2023/09/27 08:28:21;;;;;;;;;;;;;;;27.84;41.39;94730.16;5059567;28;8875;-62
2023/09/27 08:30:49;;;;;;;;;;;;;;;27.85;41.07;94729.63;5041709;28;7199;-62
2023/09/27 08:33:28;;;;;;;;;;;;;;;27.77;41.34;94716.91;5046818;28;7243;-62
2023/09/27 08:36:27;;;;;;;;;;;;;;;27.76;41.00;94724.44;5043683;28;7204;-62
2023/09/27 08:39:14;;;;;;;;;;;;;;;27.77;41.02;94711.38;4978846;28;7274;-62
2023/09/27 08:42:18;;;;;;;;;;;;;;;27.80;40.98;94710.31;4993577;28;7223;-62
2023/09/27 08:44:48;;;;;;;;;;;;;;;27.80;41.38;94710.31;4985612;28;7256;-62
2023/09/27 08:47:22;;;;;;;;;;;;;;;27.74;41.11;94713.16;4990675;28;9249;-62
2023/09/27 08:49:51;;;;;;;;;;;;;;;27.70;41.43;94707.16;4979978;28;9054;-62
2023/09/27 08:52:30;;;;;;;;;;;;;;;27.69;41.66;94710.44;4981273;28;7318;-62
2023/09/27 08:55:03;;;;;;;;;;;;;;;27.66;41.33;94701.19;5003907;28;7108;-62
2023/09/27 08:57:53;;;;;;;;;;;;;;;27.64;41.61;94698.19;4991934;28;7462;-62
2023/09/27 09:00:33;;;;;;;;;;;;;;;27.60;41.32;94681.88;4994442;28;9031;-62
2023/09/27 09:03:10;;;;;;;;;;;;;;;27.64;41.57;94682.31;4983823;28;7374;-62
2023/09/27 09:05:48;;;;;;;;;;;;;;;27.60;41.43;94690.16;4989451;28;8763;-63
2023/09/27 09:08:14;;;;;;;;;;;;;;;27.63;41.94;94686.38;4993642;28;7245;-62
2023/09/27 09:10:43;;;;;;;;;;;;;;;27.67;41.45;94685.31;5001717;28;6973;-63
2023/09/27 09:13:10;;;;;;;;;;;;;;;27.66;41.39;94683.84;4999451;28;7236;-62
2023/09/27 09:15:47;;;;;;;;;;;;;;;27.66;41.61;94681.06;5046908;28;7452;-62
2023/09/27 09:18:31;;;;;;;;;;;;;;;27.69;41.28;94677.28;5048977;28;7167;-63
2023/09/27 09:21:08;;;;;;;;;;;;;;;27.68;41.72;94671.00;5042769;28;7062;-62
2023/09/27 09:23:37;;;;;;;;;;;;;;;27.67;41.11;94668.75;5051536;28;7092;-55
2023/09/27 09:26:32;;;;;;;;;;;;;;;27.69;41.83;94669.72;5081593;28;9053;-55
2023/09/27 09:29:24;;;;;;;;;;;;;;;27.67;41.61;94663.97;4986806;28;7446;-55
2023/09/27 09:32:08;;;;;;;;;;;;;;;27.68;41.42;94667.50;4987643;28;7250;-55
2023/09/27 09:34:49;;;;;;;;;;;;;;;27.66;41.74;94662.47;5000595;28;7407;-55
2023/09/27 09:37:31;;;;;;;;;;;;;;;27.65;41.86;94660.97;4984230;28;7256;-55
2023/09/27 09:40:15;;;;;;;;;;;;;;;27.64;41.60;94659.50;4977378;28;7496;-55
2023/09/27 09:42:52;;;;;;;;;;;;;;;27.65;41.46;94655.44;4993093;28;7496;-55
2023/09/27 09:45:20;;;;;;;;;;;;;;;27.65;41.77;94647.16;4985338;28;8785;-55
2023/09/27 09:47:57;;;;;;;;;;;;;;;27.63;41.83;94649.69;4992004;28;7068;-55
2023/09/27 09:50:56;;;;;;;;;;;;;;;27.67;41.88;94646.63;4990238;28;6984;-55
2023/09/27 09:53:26;;;;;;;;;;;;;;;27.67;41.71;94638.34;4989769;28;7357;-55
2023/09/27 09:55:56;;;;;;;;;;;;;;;27.68;41.78;94637.09;5005549;28;8859;-55
2023/09/27 09:59:14;;;;;;;;;;;;;;;27.70;41.73;94635.31;5001332;28;7678;-55
2023/09/27 10:01:51;;;;;;;;;;;;;;;27.69;42.67;94641.38;4977904;28;7255;-55
2023/09/27 10:04:27;;;;;;;;;;;;;;;27.70;42.47;94631.78;4993105;28;7279;-55
2023/09/27 10:06:57;;;;;;;;;;;;;;;27.70;42.50;94634.56;5070665;28;7276;-55
2023/09/27 10:09:37;;;;;;;;;;;;;;;27.69;42.39;94633.06;5064122;28;8777;-55
2023/09/27 10:12:15;;;;;;;;;;;;;;;27.68;42.44;94631.56;5075554;28;6989;-55
2023/09/27 10:14:52;;;;;;;;;;;;;;;27.65;42.76;94622.28;5065256;28;7129;-55
2023/09/27 10:17:29;;;;;;;;;;;;;;;27.67;43.15;94624.53;5047917;28;7266;-55
2023/09/27 10:20:29;;;;;;;;;;;;;;;27.69;42.55;94622.00;5052470;28;7175;-55
2023/09/27 10:23:23;;;;;;;;;;;;;;;27.66;43.16;94612.00;5041030;28;7606;-55
2023/09/27 10:26:18;;;;;;;;;;;;;;;27.70;42.46;94606.91;4984207;28;7918;-55
2023/09/27 10:29:06;;;;;;;;;;;;;;;27.72;42.78;94599.59;4987062;28;7136;-54
2023/09/27 10:31:37;;;;;;;;;;;;;;;27.71;42.88;94597.38;4990076;28;6975;-55
2023/09/27 10:34:30;;;;;;;;;;;;;;;27.75;42.61;94589.53;4979365;28;7098;-61
2023/09/27 10:37:37;;;;;;;;;;;;;;;27.75;42.51;94587.53;4973143;28;7676;-61
2023/09/27 10:40:46;;;;;;;;;;;;;;;27.74;42.51;94579.72;4947707;28;9066;-61
2023/09/27 10:43:46;;;;;;;;;;;;;;;27.74;42.55;94572.19;4959275;28;7130;-61
2023/09/27 10:47:06;;;;;;;;;;;;;;;27.75;42.57;94570.19;4969976;28;7107;-61
2023/09/27 10:49:38;;;;;;;;;;;;;;;27.76;42.08;94566.13;4933356;28;7095;-61
2023/09/27 10:52:26;;;;;;;;;;;;;;;27.77;42.72;94560.09;4941397;28;9065;-61
2023/09/27 10:55:16;;;;;;;;;;;;;;;27.80;42.63;94561.06;4918315;29;8290;-61
2023/09/27 11:01:24;;;;;;;;;;;;;;;27.81;42.52;94563.31;4915836;29;8059;-61
2023/09/27 11:04:05;;;;;;;;;;;;;;;27.79;42.46;94557.56;4854275;29;7835;-61
2023/09/27 11:06:36;;;;;;;;;;;;;;;27.83;42.21;94558.00;4883198;29;9381;-61
2023/09/27 11:09:27;;;;;;;;;;;;;;;27.83;42.43;94557.25;4884475;29;7002;-61
2023/09/27 11:12:03;;;;;;;;;;;;;;;27.84;41.99;94556.00;4880002;29;7317;-61
2023/09/27 11:14:58;;;;;;;;;;;;;;;27.82;42.44;94542.69;4866651;29;7348;-61
2023/09/27 11:17:53;;;;;;;;;;;;;;;27.87;42.04;94544.63;4866676;29;7277;-61
2023/09/27 11:20:20;;;;;;;;;;;;;;;27.87;42.19;94541.13;4869354;29;7518;-61
2023/09/27 11:23:06;;;;;;;;;;;;;;;27.85;42.52;94535.38;4897588;29;7242;-60
2023/09/27 11:25:43;;;;;;;;;;;;;;;27.88;42.63;94531.56;4937807;28;9779;-61
2023/09/27 11:28:23;;;;;;;;;;;;;;;27.89;42.06;94541.34;4973090;28;7227;-61
2023/09/27 11:31:09;;;;;;;;;;;;;;;27.89;42.30;94530.28;4974176;28;7581;-61
2023/09/27 11:33:34;;;;;;;;;;;;;;;27.87;42.85;94527.31;4975334;28;9394;-61
2023/09/27 11:36:05;;;;;;;;;;;;;;;27.86;42.23;94525.81;4985597;28;7581;-60
2023/09/27 11:38:31;;;;;;;;;;;;;;;27.87;41.93;94524.53;5048126;28;7476;-60
2023/09/27 11:41:14;;;;;;;;;;;;;;;27.94;42.29;94521.19;5048585;28;7807;-60
2023/09/27 11:43:45;;;;;;;;;;;;;;;27.92;42.55;94529.25;5055694;28;7269;-61
2023/09/27 11:46:12;;;;;;;;;;;;;;;27.94;42.38;94518.41;5052713;28;9139;-62
2023/09/27 11:48:42;;;;;;;;;;;;;;;27.95;41.88;94522.69;5053588;28;7061;-62
2023/09/27 11:51:16;;;;;;;;;;;;;;;27.98;41.97;94516.88;5050288;28;7149;-62
2023/09/27 11:53:45;;;;;;;;;;;;;;;28.00;41.61;94517.09;5047796;28;7010;-62
2023/09/27 11:56:12;;;;;;;;;;;;;;;28.04;42.43;94514.03;5046362;28;7086;-62
2023/09/27 11:58:40;;;;;;;;;;;;;;;28.06;42.03;94515.00;5044575;28;7072;-62
2023/09/27 12:01:07;;;;;;;;;;;;;;;28.08;42.03;94506.91;5057307;28;7155;-62
2023/09/27 12:03:34;;;;;;;;;;;;;;;28.08;41.14;94509.69;5079067;28;6964;-62
2023/09/27 12:06:28;;;;;;;;;;;;;;;28.08;41.49;94498.63;5074883;28;7213;-62
2023/09/27 12:09:07;;;;;;;;;;;;;;;28.08;42.02;94504.16;4970062;28;7402;-62
2023/09/27 12:11:38;;;;;;;;;;;;;;;28.09;41.56;94494.59;4973090;28;7365;-62
2023/09/27 12:14:07;;;;;;;;;;;;;;;28.08;41.39;94501.38;4957046;28;7262;-62
2023/09/27 12:16:52;;;;;;;;;;;;;;;28.15;41.83;94505.56;4968220;28;7320;-62
2023/09/27 12:19:34;;;;;;;;;;;;;;;28.15;41.54;94498.03;4970195;28;7077;-62
2023/09/27 12:22:09;;;;;;;;;;;;;;;28.13;41.15;94503.34;4963678;28;7002;-62
2023/09/27 12:25:01;;;;;;;;;;;;;;;28.18;41.80;94499.00;4977934;28;7403;-62
2023/09/27 12:27:46;;;;;;;;;;;;;;;28.22;41.44;94502.97;4972370;28;7383;-62
2023/09/27 12:30:17;;;;;;;;;;;;;;;28.23;40.57;94495.41;4954979;28;7388;-62
2023/09/27 12:32:45;;;;;;;;;;;;;;;28.24;40.66;94497.66;4965255;28;7259;-62
2023/09/27 12:35:15;;;;;;;;;;;;;;;28.27;40.78;94504.88;4955123;28;7114;-62
2023/09/27 12:37:43;;;;;;;;;;;;;;;28.28;40.84;94500.84;4967903;28;7328;-62
2023/09/27 12:40:09;;;;;;;;;;;;;;;28.30;40.60;94498.31;4970394;28;9120;-62
2023/09/27 12:42:37;;;;;;;;;;;;;;;28.32;40.97;94495.00;4961288;28;7169;-62
2023/09/27 12:45:06;;;;;;;;;;;;;;;28.33;40.65;94490.97;5001118;28;8520;-62
2023/09/27 12:47:33;;;;;;;;;;;;;;;28.38;41.34;94490.16;5043397;28;7145;-62
2023/09/27 12:50:03;;;;;;;;;;;;;;;28.36;40.93;94490.66;5066018;28;7418;-62
2023/09/27 12:52:39;;;;;;;;;;;;;;;28.39;40.60;94488.84;5053869;28;7083;-62
2023/09/27 12:55:41;;;;;;;;;;;;;;;28.41;40.78;94486.31;5050144;28;8131;-61
2023/09/27 12:58:19;;;;;;;;;;;;;;;28.43;40.95;94489.28;4963520;28;7002;-61
2023/09/27 13:00:45;;;;;;;;;;;;;;;28.46;40.19;94490.25;4973356;28;7026;-61
2023/09/27 13:03:12;;;;;;;;;;;;;;;28.49;40.26;94494.75;4973069;28;7226;-61
2023/09/27 13:05:38;;;;;;;;;;;;;;;28.51;40.69;94479.13;4959752;28;7424;-61
2023/09/27 13:08:05;;;;;;;;;;;;;;;28.50;40.22;94476.84;4966894;28;9077;-61
2023/09/27 13:10:34;;;;;;;;;;;;;;;28.54;41.21;94483.59;4963091;28;7206;-61
2023/09/27 13:13:16;;;;;;;;;;;;;;;28.57;40.26;94479.00;4981636;28;6984;-61
2023/09/27 13:15:56;;;;;;;;;;;;;;;28.57;41.02;94476.25;4964772;28;8942;-61
2023/09/27 13:18:40;;;;;;;;;;;;;;;28.59;40.12;94470.97;4976941;28;8273;-61
2023/09/27 13:21:17;;;;;;;;;;;;;;;28.61;40.78;94471.19;4972910;28;7168;-61
2023/09/27 13:23:57;;;;;;;;;;;;;;;28.62;41.00;94458.84;4975360;28;8231;-61
2023/09/27 13:26:32;;;;;;;;;;;;;;;28.63;40.83;94461.06;4960682;28;7366;-60
2023/09/27 13:29:01;;;;;;;;;;;;;;;28.65;40.53;94461.28;4975684;28;9590;-60
2023/09/27 13:31:37;;;;;;;;;;;;;;;28.64;40.58;94459.81;4970570;28;9068;-61
2023/09/27 13:34:04;;;;;;;;;;;;;;;28.69;40.76;94455.44;5034341;28;9413;-61
2023/09/27 13:36:36;;;;;;;;;;;;;;;28.71;39.98;94459.16;5041060;28;7246;-61
2023/09/27 13:39:05;;;;;;;;;;;;;;;28.73;40.64;94451.06;5051677;28;9086;-61
2023/09/27 13:41:41;;;;;;;;;;;;;;;28.75;40.19;94450.56;5066833;28;7320;-60
2023/09/27 13:44:08;;;;;;;;;;;;;;;28.74;40.31;94447.03;5071025;28;7174;-61
2023/09/27 13:46:46;;;;;;;;;;;;;;;28.76;40.02;94450.03;5051852;28;7249;-60
2023/09/27 13:49:17;;;;;;;;;;;;;;;28.80;40.57;94453.22;5051621;28;9134;-61